Tiempo atmosférico en la estación meteorológica de Huercal Overa, Almería (295 m.)



Fecha
DESCASC
Temp. máxima en grados centígrados (hora)
DESCASC
Temp. mínima en grados centígrados (hora)
DESCASC
Temp. media en grados centígrados
DESCASC
Racha de viento máxima en m/sg (hora)
DESCASC
Velocidad máxima media en intervalos de 10 minutos(hora)
DESCASC
Precipitaciones diarias en mm
DESCASC
Precipitaciones de 00:00 a 06:00 en mm
DESCASC
Precipitaciones de 06:00 a 12:00 en mm
DESCASC
Precipitaciones de 12:00 a 18:00 en mm
DESCASC
Precipitaciones de 18:00 a 24:00 en mm
DESCASC

Gráficas

Temp. máximas Temp. mínimas Temp. medias Precipitaciones Rachas de viento máximas Velocidades máximas media en intervalos de 10 minutos

Datos horarios

Fecha y hora oficial Temperatura (ºC) Velocidad del viento (km/h) Dirección del viento Racha (km/h) Dirección de racha Precipitación (mm) Presión (hPa) Tendencia (hPa) Humedad (%)
2019-06-20 23:00:00 22.4 3 Este 16 Este 0 976.9 2.1 47
2019-06-20 22:00:00 23.4 5 Este 22 Nordeste 0 976.2 1.6 44
2019-06-20 21:00:00 25.4 7 Este 24 Este 0 975.1 0.6 37
2019-06-20 20:00:00 27.5 8 Este 29 Este 0 974.8 0.2 31
2019-06-20 19:00:00 28.8 8 Este 24 Este 0 974.6 -0.4 25
2019-06-20 18:00:00 31.3 5 Sudeste 28 Sudoeste 0 974.5 -1.1 18
2019-06-20 17:00:00 31.5 13 Sudoeste 26 Sur 0 974.6 -1.7 17
2019-06-20 16:00:00 30.8 13 Sudoeste 27 Sudoeste 0 975 -1.6 20
2019-06-20 15:00:00 30.6 10 Sur 28 Sudoeste 0 975.6 -1.8 21
2019-06-20 14:00:00 30.1 13 Sur 37 Sur 0 976.3 -1 21
2019-06-20 13:00:00 30.2 11 Sur 24 Sudoeste 0 976.6 -0.5 21
2019-06-20 12:00:00 30.2 6 Sudoeste 15 Sudoeste 0 977.4 0.3 18
2019-06-20 11:00:00 29.2 3 Sur 8 Sudoeste 0 977.3 -0.2 21
2019-06-20 10:00:00 27.8 2 Sudeste 5 Sudeste 0 977.1 -0.5 27
2019-06-20 09:00:00 25.7 0 Calma 3 Sudoeste 0 977.1 -0.1 31
2019-06-20 08:00:00 20.9 0 Calma 4 Noroeste 0 977.5 0.5 42
2019-06-20 07:00:00 18.5 0 Calma 5 Oeste 0 977.6 0.4 52
2019-06-20 06:00:00 19 0 Calma 4 Sudeste 0 977.2 -0.4 54
2019-06-20 05:00:00 19.3 0 Calma 3 Este 0 977 -0.8 56
2019-06-20 04:00:00 19.4 0 Calma 4 Noroeste 0 977.2 -0.8 58
2019-06-20 03:00:00 19.8 0 Calma 5 Nordeste 0 977.6 -0.1 58
2019-06-20 02:00:00 19.8 0 Calma 5 Oeste 0 977.8 0.5 55
2019-06-20 01:00:00 21.3 0 Calma 6 Sudoeste 0 978 1.4 58
2019-06-20 00:00:00 21.9 0 Calma 6 Nordeste 0 977.7 1.6 47
2019-06-19 23:00:00 22.9 2 Este 9 Nordeste 0 977.3 1.4 42
2019-06-19 22:00:00 24.6 2 Este 12 Este 0 976.6 0.8 35
2019-06-19 21:00:00 27.1 5 Este 13 Este 0 976.1 -0.1 30
2019-06-19 20:00:00 29.9 4 Sudeste 17 Sur 0 975.9 -1.1 21
2019-06-19 19:00:00 30.5 9 Sudoeste 18 Oeste 0 975.8 -1.4 22
2019-06-19 18:00:00 30.5 9 Sudoeste 24 Oeste 0 976.2 -2 21
2019-06-19 17:00:00 28.7 11 Sur 24 Sudoeste 0 977 -1.7 24
2019-06-19 16:00:00 28.3 14 Sur 26 Sudoeste 0 977.2 -2 24
2019-06-19 15:00:00 27.2 14 Sur 28 Sudoeste 0 978.2 -1 27
2019-06-19 14:00:00 28.3 14 Sur 25 Sudoeste 0 978.7 -0.7 28
2019-06-19 13:00:00 26.9 14 Sur 24 Sur 0 979.2 0.3 32
2019-06-19 12:00:00 28.2 6 Sur 14 Sudoeste 0 979.2 0 24
2019-06-19 11:00:00 28.5 3 Sur 8 Sudeste 0 979.4 0 24
2019-06-19 10:00:00 26.5 0 Calma 8 Este 0 978.9 -0.7 28
2019-06-19 09:00:00 22.2 3 Este 11 Sudeste 0 979.2 -0.3 45
2019-06-19 08:00:00 18.2 0 Calma 4 Oeste 0 979.4 0.1 65
2019-06-19 07:00:00 16.4 0 Calma 6 Nordeste 0 979.6 0.1 69
2019-06-19 06:00:00 16.5 0 Calma 5 Norte 0 979.5 -0.4 64
2019-06-19 05:00:00 16.7 0 Calma 4 Nordeste 0 979.3 -0.6 75
2019-06-19 04:00:00 16.6 0 Calma 5 Norte 0 979.5 -0.3 76
2019-06-19 03:00:00 17.1 0 Calma 8 Sudoeste 0 979.9 -0.2 77
2019-06-19 02:00:00 17.8 0 Calma 8 Nordeste 0 979.9 0.1 77
2019-06-19 01:00:00 18.6 3 Este 10 Este 0 979.8 0.5 76
2019-06-19 00:00:00 18.6 4 Este 10 Este 0 980.1 1.4 72
2019-06-18 23:00:00 19.8 5 Este 13 Nordeste 0 979.8 1.4 60
2019-06-18 22:00:00 20.9 6 Nordeste 15 Nordeste 0 979.3 1 51
2019-06-18 21:00:00 23.3 5 Sudoeste 20 Sudoeste 0 978.7 0.3 40
2019-06-18 20:00:00 24.3 11 Sudoeste 21 Sudoeste 0 978.4 -0.5 42
2019-06-18 19:00:00 25.2 11 Sur 24 Sur 0 978.3 -0.9 43
2019-06-18 18:00:00 25.8 14 Sur 25 Sudoeste 0 978.4 -1.3 38
2019-06-18 17:00:00 25.1 14 Sudoeste 28 Sudoeste 0 978.9 -1 39
2019-06-18 16:00:00 26.1 14 Sur 25 Sudoeste 0 979.2 -1.5 34
2019-06-18 15:00:00 25.8 14 Sudoeste 25 Sudoeste 0 979.7 -0.9 31
2019-06-18 14:00:00 25.9 10 Sudoeste 24 Sudoeste 0 979.9 -1 29
2019-06-18 13:00:00 24.7 13 Sudoeste 25 Sudoeste 0 980.7 -0.1 36
2019-06-18 12:00:00 24.2 9 Sudoeste 22 Sudoeste 0 980.6 0.2 38
2019-06-18 11:00:00 22.3 12 Sudoeste 18 Sudoeste 0 980.9 0.1 40
2019-06-18 10:00:00 22.4 6 Sur 13 Sudoeste 0 980.8 0 29
2019-06-18 09:00:00 21.5 3 Este 6 Este 0 980.4 -0.2 33
2019-06-18 08:00:00 17.8 0 Calma 6 Sudeste 0 980.8 0.4 38
2019-06-18 07:00:00 15.6 0 Calma 4 Este 0 980.8 -0.1 43
2019-06-18 06:00:00 15.9 0 Calma 4 Este 0 980.6 -0.7 41
2019-06-18 05:00:00 16.5 0 Calma 4 Sudoeste 0 980.4 -1.2 39
2019-06-18 04:00:00 17.8 3 Sudoeste 6 Sudoeste 0 980.9 -1.1 38
2019-06-18 03:00:00 17.9 3 Sudoeste 5 Sudoeste 0 981.3 -0.8 38
2019-06-18 02:00:00 18 4 Noroeste 6 Noroeste 0 981.6 -0.2 37
2019-06-18 01:00:00 18.7 0 Calma 5 Nordeste 0 982 0.8 40
2019-06-18 00:00:00 19.8 0 Calma 4 Oeste 0 982.1 1.2 35
2019-06-17 23:00:00 20.6 2 Oeste 6 Sudoeste 0 981.8 1.3 35
2019-06-17 22:00:00 21.4 3 Sudoeste 13 Sudoeste 0 981.2 1.1 34
2019-06-17 21:00:00 22.7 10 Sudoeste 20 Sudoeste 0 980.9 0.4 31
2019-06-17 20:00:00 24.8 13 Sudoeste 21 Sudoeste 0 980.5 -0.1 29
2019-06-17 19:00:00 24.9 13 Sudoeste 28 Sudoeste 0 980.1 -1 30
2019-06-17 18:00:00 25.4 13 Sudoeste 25 Sur 0 980.5 -0.6 34
2019-06-17 17:00:00 25.3 15 Sudoeste 26 Sudoeste 0 980.6 -1.2 34
2019-06-17 16:00:00 25.7 15 Sudoeste 27 Sudoeste 0 981.1 -0.9 36
2019-06-17 15:00:00 26.3 16 Sudoeste 28 Sudoeste 0 981.1 -1 34
2019-06-17 14:00:00 26.3 15 Sudoeste 27 Sur 0 981.8 -1 36
2019-06-17 13:00:00 26.6 10 Sur 18 Sur 0 982 -0.8 27
2019-06-17 12:00:00 28.5 0 Calma 12 Sudoeste 0 982.1 -0.6 25
2019-06-17 11:00:00 24.6 4 Sudoeste 11 Sudoeste 0 982.8 -0.4 30
2019-06-17 10:00:00 23 4 Sudeste 9 Sudeste 0 982.8 -0.2 34
2019-06-17 09:00:00 21 0 Calma 5 Este 0 982.7 -0.1 46
2019-06-17 08:00:00 17.5 0 Calma 5 Sudeste 0 983.2 0.3 59
2019-06-17 07:00:00 14.1 3 Noroeste 6 Noroeste 0 983 -0.2 77
2019-06-17 06:00:00 15.1 0 Calma 7 Este 0 982.8 -0.8 72
2019-06-17 05:00:00 15.3 3 Este 4 Este 0 982.9 -1.1 72
2019-06-17 04:00:00 16.4 0 Calma 5 Sudoeste 0 983.2 -1 72
2019-06-17 03:00:00 17 2 Oeste 5 Oeste 0 983.6 -0.7 71
2019-06-17 02:00:00 17.6 0 Calma 3 Oeste 0 984 0 66
2019-06-17 01:00:00 18.1 0 Calma -- -- 0 984.2 0.8 69
2019-06-17 00:00:00 19.2 0 Calma 4 Sudoeste 0 984.3 1.4 66
2019-06-16 23:00:00 19.9 0 Calma 5 Oeste 0 984 1.1 63
2019-06-16 22:00:00 20.5 4 Sudoeste 14 Sur 0 983.4 0.9 60
2019-06-16 21:00:00 21.5 8 Sur 17 Sur 0 982.9 0.6 50
2019-06-16 20:00:00 23.6 9 Sudoeste 22 Sur 0 982.9 0.1 41
2019-06-16 19:00:00 23.8 6 Sur 20 Sudoeste 0 982.5 -0.4 40
2019-06-16 18:00:00 24.9 5 Sudeste 18 Sudoeste 0 982.3 -1 40
2019-06-16 17:00:00 24.7 6 Sudeste 24 Sudoeste 0 982.8 -0.5 40
2019-06-16 16:00:00 23.7 10 Sudoeste 27 Sudoeste 0 982.9 -1 48
2019-06-16 15:00:00 22.4 14 Sur 27 Sur 0 983.3 -0.7 44
2019-06-16 14:00:00 25.2 7 Este 18 Sudeste 0 983.3 -1.2 22
2019-06-16 13:00:00 24.7 8 Este 20 Este 0 983.9 -0.6 24
2019-06-16 12:00:00 24 8 Sudeste 18 Este 0 984 0.3 24
2019-06-16 11:00:00 23.7 8 Sudeste 17 Sudeste 0 984.5 0.7 25
2019-06-16 10:00:00 22.4 5 Este 13 Este 0 984.5 1 27
2019-06-16 09:00:00 21.9 2 Oeste 6 Noroeste 0 983.7 0.7 32
2019-06-16 08:00:00 16.9 2 Sudoeste 6 Nordeste 0 983.8 1.1 39
2019-06-16 07:00:00 15.1 0 Calma 5 Nordeste 0 983.5 0.6 43
2019-06-16 06:00:00 15.4 0 Calma 6 Noroeste 0 983 -0.1 43
2019-06-16 05:00:00 15.6 2 Noroeste 4 Oeste 0 982.7 -0.7 43
2019-06-16 04:00:00 17 0 Calma 4 Nordeste 0 982.9 -1.2 41
2019-06-16 03:00:00 17.9 0 Calma 6 Noroeste 0 983.1 -0.7 39
2019-06-16 02:00:00 18.2 0 Calma 5 Noroeste 0 983.4 0.1 40
2019-06-16 01:00:00 18.2 0 Calma 4 Oeste 0 984.1 1.8 43
2019-06-16 00:00:00 18.8 3 Oeste 7 Sudoeste 0 983.8 2.1 46
2019-06-15 23:00:00 19.9 5 Sudoeste 10 Sudoeste 0 983.3 2 43
2019-06-15 22:00:00 21.4 4 Sudoeste 12 Nordeste 0 982.3 1.7 32
2019-06-15 21:00:00 23.6 4 Este 22 Este 0 981.7 1 23
2019-06-15 20:00:00 24.8 4 Sur 21 Sudoeste 0 981.3 0.1 24
2019-06-15 19:00:00 25.4 11 Sudoeste 23 Sudoeste 0 980.6 -0.9 23
2019-06-15 18:00:00 25.4 14 Sudoeste 25 Sudoeste 0 980.7 -1 21
2019-06-15 17:00:00 25.6 14 Sudoeste 28 Sudoeste 0 981.2 -0.8 21
2019-06-15 16:00:00 25.6 15 Sudoeste 29 Sudoeste 0 981.5 -0.8 24
2019-06-15 15:00:00 25.8 17 Sudoeste 32 Sudoeste 0 981.7 -0.7 23
2019-06-15 14:00:00 25.5 16 Sur 29 Sur 0 982 -0.3 24
2019-06-15 13:00:00 24.9 17 Sudoeste 27 Sudoeste 0 982.3 -0.1 22
2019-06-15 12:00:00 26.9 2 Sudeste 14 Este 0 982.4 0.5 18
2019-06-15 11:00:00 25.5 4 Nordeste 10 Nordeste 0 982.3 0.3 21
2019-06-15 10:00:00 23 3 Sudeste 8 Este 0 982.4 0.6 26
2019-06-15 09:00:00 21 2 Oeste 11 Sudoeste 0 981.9 0.7 29
2019-06-15 08:00:00 18.2 2 Sur 16 Noroeste 0 982 1.2 33
2019-06-15 07:00:00 16.9 5 Noroeste 26 Oeste 0 981.8 1.5 33
2019-06-15 06:00:00 17.9 13 Oeste 22 Noroeste 0 981.2 1 28
2019-06-15 05:00:00 18.7 9 Sudoeste 19 Oeste 0 980.8 0.9 24
2019-06-15 04:00:00 19.8 11 Sudoeste 17 Sudoeste 0 980.3 0.7 23
2019-06-15 03:00:00 20.1 8 Sudoeste 19 Sudoeste 0 980.2 0.9 22
2019-06-15 02:00:00 21.4 8 Oeste 22 Oeste 0 979.9 1.2 22
2019-06-15 01:00:00 22.7 11 Oeste 25 Oeste 0 979.6 1.9 21
2019-06-15 00:00:00 23.3 4 Oeste 10 Sudoeste 0 979.3 2.4 21
2019-06-14 23:00:00 23.9 0 Calma 6 Nordeste 0 978.7 2.4 21
2019-06-14 22:00:00 24.8 2 Nordeste 16 Este 0 977.7 1.8 20
2019-06-14 21:00:00 26.5 7 Este 19 Nordeste 0 976.9 1 17
2019-06-14 20:00:00 29.2 7 Sur 19 Sur 0 976.3 0.1 16
2019-06-14 19:00:00 28.2 12 Sur 24 Sur 0 975.9 -0.7 18
2019-06-14 18:00:00 29.1 12 Sur 26 Sudoeste 0 975.9 -0.9 20
2019-06-14 17:00:00 27.7 14 Sudoeste 26 Sur 0 976.2 -0.8 22
2019-06-14 16:00:00 28.1 14 Sur 29 Sur 0 976.6 -0.9 24
2019-06-14 15:00:00 27 11 Sur 26 Sudoeste 0 976.8 -0.6 29
2019-06-14 14:00:00 26.5 11 Sur 26 Sudoeste 0 977 -0.9 34
2019-06-14 13:00:00 25.1 11 Sur 23 Sudoeste 0 977.5 0.2 37
2019-06-14 12:00:00 25.2 5 Sur 21 Sur 0.1 977.4 0.3 35
2019-06-14 11:00:00 23.5 4 Sur 12 Sudoeste 0 977.9 0.8 43
2019-06-14 10:00:00 22.8 0 Calma 9 Este 0 977.3 0.8 55
2019-06-14 09:00:00 19.6 3 Este 12 Nordeste 0 977.1 1.2 74
2019-06-14 08:00:00 17.4 2 Este 9 Este 0 977.1 1.2 80
2019-06-14 07:00:00 16.9 0 Calma 10 Nordeste 0 976.5 1 83
2019-06-14 06:00:00 17.6 2 Sudeste 14 Sudoeste 1 975.9 -0.2 83
2019-06-14 05:00:00 17.8 9 Sudoeste 17 Sur 0 975.9 -1.5 75
2019-06-14 04:00:00 18.7 0 Calma 10 Noroeste 0 975.5 -1.7 68
2019-06-14 03:00:00 18.8 0 Calma 10 Sur 0 976.1 -1.3 66
2019-06-14 02:00:00 18.6 6 Sur 13 Sudoeste 0 977.4 0.1 66
2019-06-14 01:00:00 18.5 3 Sudoeste 12 Sudoeste 0 977.2 0.3 70
2019-06-14 00:00:00 18.6 9 Sudoeste 15 Sudoeste 0 977.4 1.5 70
2019-06-13 23:00:00 18.4 8 Sudoeste 19 Sur 0 977.3 2.7 75
2019-06-13 22:00:00 18.5 13 Sur 23 Sur 0 976.9 2.9 76
2019-06-13 21:00:00 19.2 11 Sur 26 Sur 0 975.9 1.6 70
2019-06-13 20:00:00 20.1 13 Sur 23 Sur 0 974.6 0.4 65
2019-06-13 19:00:00 21.9 8 Sur 24 Sur 0 974 -0.2 55
2019-06-13 18:00:00 23.6 12 Sur 22 Sur 0 974.3 -0.1 49
2019-06-13 17:00:00 25.6 4 Sudeste 23 Este 0 974.2 -0.7 43
2019-06-13 16:00:00 23.8 10 Este 24 Este 0 974.2 -1.5 42
2019-06-13 15:00:00 26.3 7 Este 24 Este 0 974.4 -1.7 40
2019-06-13 14:00:00 24.9 7 Sudeste 28 Sudeste 0 974.9 -1.6 38
2019-06-13 13:00:00 25.4 9 Este 29 Sudeste 0 975.7 -1.2 37
2019-06-13 12:00:00 22.9 12 Este 28 Este 0 976.1 -1.7 42
2019-06-13 11:00:00 21.5 8 Este 29 Este 0 976.5 -0.6 50
2019-06-13 10:00:00 20.1 8 Este 23 Este 0 976.9 -0.5 56
2019-06-13 09:00:00 19.2 0 Calma 15 Este 0 977.8 0.2 57
2019-06-13 08:00:00 17 2 Este 9 Oeste 0 977.1 -0.1 68
2019-06-13 07:00:00 15.9 0 Calma 8 Noroeste 0 977.4 0.1 72
2019-06-13 06:00:00 16 2 Noroeste 9 Sudoeste 0 977.6 -0.7 75
2019-06-13 05:00:00 16.6 2 Sudeste 9 Nordeste 0 977.2 -0.8 75
2019-06-13 04:00:00 17 2 Nordeste 15 Este 0 977.3 -1.6 74
2019-06-13 03:00:00 17.1 5 Sudeste 17 Nordeste 0 978.3 -0.5 72
2019-06-13 02:00:00 17.5 5 Nordeste 16 Este 0 978 -0.7 71
2019-06-13 01:00:00 17.7 5 Este 15 Este 0 978.9 0.9 72
2019-06-13 00:00:00 18.2 6 Sudeste 14 Sudeste 0 978.8 1.2 72
2019-06-12 23:00:00 18.8 3 Sudeste 12 Este 0 978.7 1.8 75
2019-06-12 22:00:00 18.7 3 Sudeste 19 Sudeste 0 978 0.9 71
2019-06-12 21:00:00 19.2 8 Sudeste 18 Sudeste 0 977.6 0.1 62
2019-06-12 20:00:00 20.9 4 Este 19 Este 0 976.9 -0.9 54
2019-06-12 19:00:00 20.6 9 Este 22 Sudeste 0 977.1 -0.7 53
2019-06-12 18:00:00 21.9 7 Sudeste 24 Este 0 977.5 -0.5 48
2019-06-12 17:00:00 22.1 9 Sur 24 Sudoeste 0 977.8 -0.4 46
2019-06-12 16:00:00 22.8 5 Sudeste 21 Sur 0 977.8 -1.4 43
2019-06-12 15:00:00 22.3 5 Sudeste 29 Sur 0 978 -1 42
2019-06-12 14:00:00 21.9 13 Sur 28 Sudoeste 0 978.2 -1.1 40
2019-06-12 13:00:00 21.5 10 Sur 21 Sur 0 979.2 -0.6 34
2019-06-12 12:00:00 23.6 5 Este 16 Este 0 979 -0.6 30
2019-06-12 11:00:00 20.3 6 Nordeste 15 Sudeste 0 979.3 -0.4 35
2019-06-12 10:00:00 19.7 3 Este 17 Este 0 979.8 0.2 37
2019-06-12 09:00:00 18.4 5 Nordeste 16 Este 0 979.6 0.3 46
2019-06-12 08:00:00 17 4 Este 16 Sudeste 0 979.7 0.8 59
2019-06-12 07:00:00 16.6 6 Sudeste 21 Este 0 979.6 1 50
2019-06-12 06:00:00 16.5 6 Sudeste 20 Este 0 979.3 0.7 61
2019-06-12 05:00:00 16.6 7 Sudeste 16 Sudeste 0 978.9 0 69
2019-06-12 04:00:00 16.8 6 Este 15 Sudeste 0 978.6 -0.2 70
2019-06-12 03:00:00 17 5 Sudeste 14 Sudeste 0 978.6 0.1 69
2019-06-12 02:00:00 16.9 4 Sur 16 Este 0 978.9 1 68
2019-06-12 01:00:00 17.4 5 Sudeste 17 Este 0 978.8 2.2 73
2019-06-12 00:00:00 18.4 6 Este 20 Este 0 978.5 3.8 69
2019-06-11 23:00:00 18.9 12 Este 28 Este 0 977.9 4.5 71
2019-06-11 22:00:00 18.8 13 Sudeste 35 Este 0 976.6 4 73
2019-06-11 21:00:00 21.3 15 Este 31 Este 0 974.7 2.7 42
2019-06-11 20:00:00 23.1 12 Este 28 Este 0 973.4 1.7 38
2019-06-11 19:00:00 24 13 Este 36 Este 0 972.6 0.6 37
2019-06-11 18:00:00 26.7 8 Sudeste 24 Sudeste 0 972 -0.4 25
2019-06-11 17:00:00 27 13 Sur 32 Sur 0 971.7 -1.1 20
2019-06-11 16:00:00 27.3 12 Sur 30 Sur 0 972 -1.1 21
2019-06-11 15:00:00 26.2 15 Sur 30 Sudoeste 0 972.4 -1 25
2019-06-11 14:00:00 25 14 Sur 32 Sur 0 972.8 -0.8 32
2019-06-11 13:00:00 25.4 16 Sur 30 Sur 0 973.1 -1.1 34
2019-06-11 12:00:00 25.3 12 Sur 27 Sur 0 973.4 -0.9 30
2019-06-11 11:00:00 27 9 Oeste 23 Sudoeste 0 973.6 -1.3 21
2019-06-11 10:00:00 24.8 8 Oeste 19 Noroeste 0 974.2 -0.9 26
2019-06-11 09:00:00 22.5 4 Oeste 15 Noroeste 0 974.3 -0.7 29
2019-06-11 08:00:00 19.4 5 Oeste 11 Oeste 0 974.9 -0.5 34
2019-06-11 07:00:00 17.3 0 Calma 10 Sudoeste 0 975.1 -0.7 37
2019-06-11 06:00:00 16.5 0 Calma 9 Este 0 975 -1.5 38
2019-06-11 05:00:00 16.7 3 Este 7 Este 0 975.4 -1.6 36
2019-06-11 04:00:00 17.8 2 Este 9 Sudeste 0 975.8 -1.6 34
2019-06-11 03:00:00 18 0 Calma 8 Este 0 976.5 -1.3 34
2019-06-11 02:00:00 18.3 0 Calma 9 Este 0 977 -0.6 37
2019-06-11 01:00:00 19.2 2 Sudoeste 5 Sudoeste 0 977.4 0.3 34
2019-06-11 00:00:00 20.4 0 Calma 7 Sur 0 977.8 1.3 39
2019-06-10 23:00:00 21.5 0 Calma 8 Nordeste 0 977.6 1.3 24
2019-06-10 22:00:00 23.5 4 Este 13 Este 0 977.1 0.9 21
2019-06-10 21:00:00 26 2 Sur 16 Sur 0 976.5 -0.1 16
2019-06-10 20:00:00 26.4 7 Sudeste 23 Sur 0 976.3 -0.7 17
2019-06-10 19:00:00 27 10 Sur 31 Sur 0 976.2 -1 18
2019-06-10 18:00:00 25.8 14 Sur 36 Sur 0 976.6 -0.9 18
2019-06-10 17:00:00 26.8 14 Sur 37 Sudeste 0 977 -1 19
2019-06-10 16:00:00 26.2 15 Sur 36 Sudoeste 0 977.2 -1.1 19
2019-06-10 15:00:00 26 19 Sur 34 Sur 0 977.5 -1.2 21
2019-06-10 14:00:00 27.8 17 Sur 30 Sur 0 978 -1.3 18
2019-06-10 13:00:00 29.9 2 Nordeste 24 Oeste 0 978.3 -1.2 15
2019-06-10 12:00:00 28.2 2 Oeste 15 Sudeste 0 978.7 -0.3 17
2019-06-10 11:00:00 27.5 3 Sudeste 20 Oeste 0 979.3 0.1 19
2019-06-10 10:00:00 25 8 Oeste 21 Oeste 0 979.5 0.5 24
2019-06-10 09:00:00 22.1 12 Oeste 25 Noroeste 0 979 0.2 27
2019-06-10 08:00:00 20.2 14 Noroeste 30 Oeste 0 979.2 0.4 28
2019-06-10 07:00:00 19.9 19 Noroeste 38 Noroeste 0 979 0.3 28
2019-06-10 06:00:00 20.8 16 Oeste 28 Noroeste 0 978.8 -0.2 26
2019-06-10 05:00:00 21.3 10 Oeste 24 Oeste 0 978.8 -0.3 25
2019-06-10 04:00:00 21.9 8 Oeste 18 Noroeste 0 978.7 -0.9 27
2019-06-10 03:00:00 22.5 12 Oeste 20 Oeste 0 979 -0.7 27
2019-06-10 02:00:00 21.7 12 Oeste 17 Oeste 0 979.1 -0.8 31
2019-06-10 01:00:00 18.9 0 Calma 6 Oeste 0 979.6 0.4 72
2019-06-10 00:00:00 19.8 0 Calma 10 Nordeste 0 979.7 1 70
2019-06-09 23:00:00 20.3 3 Nordeste 9 Nordeste 0 979.9 1.4 66
2019-06-09 22:00:00 20.8 6 Este 15 Nordeste 0 979.2 1 63
2019-06-09 21:00:00 21.9 8 Este 21 Este 0 978.7 0.6 59
2019-06-09 20:00:00 23.6 9 Este 27 Este 0 978.5 0 49
2019-06-09 19:00:00 26.1 7 Sur 22 Sudoeste 0 978.2 -0.9 34
2019-06-09 18:00:00 27.1 12 Sur 26 Sudoeste 0 978.1 -1.6 33
2019-06-09 17:00:00 26.2 14 Sudoeste 26 Sudoeste 0 978.5 -1.9 37
2019-06-09 16:00:00 26.3 13 Sudoeste 32 Sudoeste 0 979.1 -1.6 37
2019-06-09 15:00:00 24.3 13 Sudoeste 27 Sudoeste 0 979.7 -1.9 43
2019-06-09 14:00:00 24.2 13 Sudoeste 24 Sudoeste 0 980.4 -1.4 42
2019-06-09 13:00:00 24.5 10 Sudoeste 19 Sudoeste 0 980.7 -1.3 40
2019-06-09 12:00:00 23.4 3 Sur 9 Sur 0 981.6 -0.9 40
2019-06-09 11:00:00 22.6 0 Calma 10 Sudoeste 0 981.8 -0.7 45
2019-06-09 10:00:00 21.5 0 Calma 8 Sudoeste 0 982 -0.3 53
2019-06-09 09:00:00 18.5 0 Calma 0 Calma 0 982.5 -0.1 60
2019-06-09 08:00:00 16.4 0 Calma 5 Sudoeste 0 982.5 0 62
2019-06-09 07:00:00 16.1 0 Calma 5 Noroeste 0 982.3 -0.7 62
2019-06-09 06:00:00 15.6 0 Calma 5 Oeste 0 982.6 -1.1 77
2019-06-09 05:00:00 16.4 0 Calma 6 Oeste 0 982.5 -1.5 81
2019-06-09 04:00:00 17.3 0 Calma 6 Sur 0 983 -1.6 78
2019-06-09 03:00:00 17.5 0 Calma 8 Oeste 0 983.7 -1.2 79
2019-06-09 02:00:00 18 0 Calma 10 Oeste 0 984 -0.6 78
2019-06-09 01:00:00 18.2 0 Calma 8 Sudoeste 0 984.6 0.8 76
2019-06-09 00:00:00 18.4 4 Sudoeste 13 Sur 0 984.9 1.6 76
2019-06-08 23:00:00 18.6 6 Sudoeste 18 Sudoeste 0 984.6 1.7 78
2019-06-08 22:00:00 19.1 10 Sur 17 Sur 0 983.8 1.4 75
2019-06-08 21:00:00 20.4 5 Sur 14 Sudoeste 0 983.3 0.8 66
2019-06-08 20:00:00 22.2 5 Sur 21 Sudoeste 0 982.9 0.5 56
2019-06-08 19:00:00 23.5 11 Sudoeste 23 Sur 0 982.4 -0.2 50
2019-06-08 18:00:00 24.8 9 Sur 21 Este 0 982.5 -0.5 43
2019-06-08 17:00:00 25.5 10 Sudeste 25 Sudeste 0 982.4 -1.2 40
2019-06-08 16:00:00 26.4 10 Sudeste 32 Sudeste 0 982.6 -1.3 37
2019-06-08 15:00:00 25.4 10 Sudeste 27 Sudeste 0 983 -1.3 38
2019-06-08 14:00:00 25.7 10 Sudeste 24 Este 0 983.6 -0.9 38
2019-06-08 13:00:00 25.4 5 Este 28 Este 0 983.9 -0.2 33
2019-06-08 12:00:00 24.8 9 Sudeste 28 Sudeste 0 984.3 0.4 29
2019-06-08 11:00:00 24.6 10 Este 28 Este 0 984.5 0.1 29
2019-06-08 10:00:00 23.4 7 Este 20 Nordeste 0 984.1 0.4 28
2019-06-08 09:00:00 21.2 5 Este 22 Este 0 983.9 0.4 37
2019-06-08 08:00:00 16.4 4 Este 11 Este 0 984.4 0.8 52
2019-06-08 07:00:00 15.3 0 Calma 4 Sudoeste 0 983.7 -0.1 54
2019-06-08 06:00:00 16 0 Calma 4 Noroeste 0 983.5 -0.4 57
2019-06-08 05:00:00 16.2 3 Noroeste 9 Nordeste 0 983.6 -0.1 52
2019-06-08 04:00:00 17.5 0 Calma 5 Noroeste 0 983.8 0.6 61
2019-06-08 03:00:00 17.3 0 Calma 5 Sudoeste 0 983.9 1.2 52
2019-06-08 02:00:00 18.1 0 Calma 4 Sur 0 983.7 1.6 51
2019-06-08 01:00:00 19.4 0 Calma 7 Sudoeste 0 983.2 2.1 47
2019-06-08 00:00:00 20.5 0 Calma 6 Nordeste 0 982.7 2.2 39
2019-06-07 23:00:00 21.6 0 Calma 9 Nordeste 0 982.1 2.2 37
2019-06-07 22:00:00 22.7 0 Calma 15 Sudeste 0 981.1 1.9 28
2019-06-07 21:00:00 23.5 6 Este 22 Este 0 980.5 1.6 29
2019-06-07 20:00:00 26 4 Sudoeste 19 Sudoeste 0 979.9 0.9 27
2019-06-07 19:00:00 25.7 11 Sudoeste 24 Sudoeste 0 979.2 0.1 24
2019-06-07 18:00:00 26.9 11 Sudoeste 24 Sudoeste 0 978.9 -0.3 21
2019-06-07 17:00:00 26.2 12 Sudoeste 27 Sudoeste 0 979 -0.2 23
2019-06-07 16:00:00 26.1 9 Sur 29 Sudoeste 0 979.1 0.1 24
2019-06-07 15:00:00 24.3 14 Sur 28 Sudoeste 0 979.2 0.1 29
2019-06-07 14:00:00 24.1 13 Sudoeste 31 Sudoeste 0 979.2 0.4 40
2019-06-07 13:00:00 24 15 Sudoeste 28 Sur 0 979 0.4 39
2019-06-07 12:00:00 25.8 12 Oeste 30 Oeste 0 979.1 0.3 21
2019-06-07 11:00:00 24.3 18 Oeste 31 Oeste 0 978.8 0.6 25
2019-06-07 10:00:00 22.2 10 Oeste 24 Oeste 0 978.6 1 27
2019-06-07 09:00:00 19.7 4 Sudoeste 12 Oeste 0 978.8 1.5 30
2019-06-07 08:00:00 15.1 0 Calma 12 Noroeste 0 978.2 1.4 57
2019-06-07 07:00:00 14 0 Calma 8 Noroeste 0 977.6 0.9 58
2019-06-07 06:00:00 13.8 2 Noroeste 6 Sudeste 0 977.3 0.7 62
2019-06-07 05:00:00 14.6 0 Calma 6 Este 0 976.8 0.1 61
2019-06-07 04:00:00 14.8 0 Calma 5 Norte 0 976.7 -0.2 63
2019-06-07 03:00:00 16.4 0 Calma 10 Nordeste 0 976.6 -0.4 72
2019-06-07 02:00:00 16.4 3 Nordeste 10 Nordeste 0 976.7 0.1 78
2019-06-07 01:00:00 16.9 3 Nordeste 13 Nordeste 0 976.9 1.2 77
2019-06-07 00:00:00 17.6 6 Nordeste 13 Nordeste 0 977 1.9 64
2019-06-06 23:00:00 19.5 0 Calma 15 Sudeste 0 976.6 2 40
2019-06-06 22:00:00 20.2 9 Este 21 Este 0 975.7 1 37
2019-06-06 21:00:00 22.8 3 Este 15 Sur 0 975.1 0.2 24
2019-06-06 20:00:00 24.8 7 Sudoeste 19 Sudoeste 0 974.6 -0.8 24
2019-06-06 19:00:00 25.5 10 Sudeste 24 Sur 0 974.7 -1.2 24
2019-06-06 18:00:00 25.3 14 Sur 27 Sudoeste 0 974.9 -1.8 24
2019-06-06 17:00:00 25.6 13 Sudoeste 28 Sudoeste 0 975.4 -1.7 21
2019-06-06 16:00:00 25.2 16 Sudoeste 32 Sudoeste 0 975.9 -1.9 26
2019-06-06 15:00:00 24.3 14 Sudoeste 31 Sudoeste 0 976.7 -1 26
2019-06-06 14:00:00 25.4 17 Sudoeste 37 Sudoeste 0 977.1 -1 22
2019-06-06 13:00:00 24.4 17 Sudoeste 29 Sudoeste 0 977.8 -0.4 21
2019-06-06 12:00:00 25.6 8 Este 23 Nordeste 0 977.7 -0.6 18
2019-06-06 11:00:00 25.1 4 Sudeste 15 Este 0 978.1 -0.5 17
2019-06-06 10:00:00 24.9 0 Calma 2 Sudoeste 0 978.2 -0.3 19
2019-06-06 09:00:00 21.4 0 Calma 3 Oeste 0 978.3 0 24
2019-06-06 08:00:00 17.9 0 Calma 3 Noroeste 0 978.6 0.4 27
2019-06-06 07:00:00 13.8 0 Calma 4 Oeste 0 978.5 0.1 28
2019-06-06 06:00:00 14.7 0 Calma 4 Noroeste 0 978.3 -0.1 27
2019-06-06 05:00:00 15.5 0 Calma 4 Noroeste 0 978.2 -0.4 25
2019-06-06 04:00:00 17.4 0 Calma 8 Oeste 0 978.4 -0.2 21
2019-06-06 03:00:00 18.3 0 Calma 6 Oeste 0 978.4 0.2 20
2019-06-06 02:00:00 19.4 3 Oeste 13 Noroeste 0 978.6 0.9 18
2019-06-06 01:00:00 20.8 0 Calma 15 Oeste 0 978.6 1.8 17
2019-06-06 00:00:00 22 8 Noroeste 22 Noroeste 0 978.2 2.1 16
2019-06-05 23:00:00 22.6 10 Oeste 23 Noroeste 0 977.7 2.2 14
2019-06-05 22:00:00 23.8 12 Noroeste 25 Noroeste 0 976.8 1.7 12
2019-06-05 21:00:00 24.5 17 Noroeste 32 Oeste 0 976.1 1.1 --
2019-06-05 20:00:00 25.5 16 Noroeste 31 Noroeste 0 975.5 0.5 --
2019-06-05 19:00:00 26.4 15 Noroeste 35 Noroeste 0 975.1 0 --
2019-06-05 18:00:00 27.2 13 Noroeste 40 Noroeste 0 975 -0.8 --
2019-06-05 17:00:00 27.3 18 Noroeste 54 Sudoeste 0 975 -0.4 --
2019-06-05 16:00:00 27.4 28 Oeste 53 Oeste 0 975.1 -0.4 --
2019-06-05 15:00:00 25.7 22 Noroeste 48 Noroeste 0 975.8 0.1 --
2019-06-05 14:00:00 24.2 23 Noroeste 53 Oeste 0 975.4 0.1 --
2019-06-05 13:00:00 24.6 23 Noroeste 48 Noroeste 0 975.5 0.8 15
2019-06-05 12:00:00 23.9 21 Noroeste 47 Oeste 0 975.7 1.5 19
2019-06-05 11:00:00 22.6 22 Noroeste 48 Noroeste 0 975.3 1.5 25
2019-06-05 10:00:00 22.2 22 Noroeste 49 Noroeste 0 974.7 1.2 31
2019-06-05 09:00:00 22 21 Noroeste 45 Oeste 0 974.2 1.1 37
2019-06-05 08:00:00 21.2 19 Oeste 34 Oeste 0 973.8 0.8 41
2019-06-05 07:00:00 20.8 11 Oeste 26 Noroeste 0 973.5 0.5 43
2019-06-05 06:00:00 19.9 6 Noroeste 18 Oeste 0 973.1 -0.2 50
2019-06-05 05:00:00 17.3 0 Calma 6 Sur 0 973 -0.9 71
2019-06-05 04:00:00 16.4 0 Calma 7 Sur 0 973 -1.1 74
2019-06-05 03:00:00 16.8 0 Calma 8 Sudoeste 0 973.3 -1.1 72
2019-06-05 02:00:00 17.5 0 Calma 4 Este 0 973.9 -0.3 73
2019-06-05 01:00:00 17.9 0 Calma 6 Sudeste 0 974.1 0.4 71
2019-06-05 00:00:00 18.3 2 Este 10 Nordeste 0 974.4 0.9 71
2019-06-04 23:00:00 18.7 4 Nordeste 20 Nordeste 0 974.2 1.1 69
2019-06-04 22:00:00 19.5 10 Este 23 Nordeste 0 973.7 0.6 64
2019-06-04 21:00:00 22.1 7 Este 22 Este 0 973.5 0 47
2019-06-04 20:00:00 25 8 Este 19 Este 0 973.1 -1 37
2019-06-04 19:00:00 27.1 6 Este 22 Sudeste 0 973.1 -2 32
2019-06-04 18:00:00 28.6 8 Sudoeste 21 Sudoeste 0 973.5 -2.5 25
2019-06-04 17:00:00 28.2 7 Sur 23 Sudoeste 0 974.1 -2.8 26
2019-06-04 16:00:00 28 10 Sudoeste 23 Sudoeste 0 975.1 -2.3 31
2019-06-04 15:00:00 26.3 13 Sudoeste 24 Sudoeste 0 976 -2 34
2019-06-04 14:00:00 24.6 13 Sudoeste 24 Sur 0 976.9 -0.9 37
2019-06-04 13:00:00 25.5 10 Sur 27 Sudoeste 0 977.4 -1 37
2019-06-04 12:00:00 24.4 9 Sur 17 Sur 0 978 -0.2 36
2019-06-04 11:00:00 24.2 0 Calma 9 Sudeste 0 977.8 -0.8 27
2019-06-04 10:00:00 23.1 2 Sudeste 9 Este 0 978.4 -0.2 28
2019-06-04 09:00:00 21.2 0 Calma 4 Sudeste 0 978.2 -0.3 34
2019-06-04 08:00:00 16.7 0 Calma 6 Nordeste 0 978.6 -0.1 40
2019-06-04 07:00:00 14.4 3 Este 6 Este 0 978.6 -0.7 42
2019-06-04 06:00:00 14.6 0 Calma 3 Sudoeste 0 978.5 -1.3 40
2019-06-04 05:00:00 15.1 0 Calma 5 Nordeste 0 978.7 -1.8 40
2019-06-04 04:00:00 15.9 0 Calma 4 Este 0 979.3 -1.7 40
2019-06-04 03:00:00 16.7 0 Calma 3 Sudeste 0 979.8 -1.4 39
2019-06-04 02:00:00 17.6 0 Calma -- -- -- 980.5 -0.8 39
2019-06-04 01:00:00 17.7 0 Calma 5 Noroeste 0 981 0.1 41
2019-06-04 00:00:00 18.9 2 Noroeste 6 Noroeste 0 981.2 0.6 37
2019-06-03 23:00:00 19.4 3 Oeste 5 Noroeste 0 981.3 0.9 31
2019-06-03 22:00:00 20.4 6 Sudoeste 11 Sudoeste 0 980.9 0.5 31
2019-06-03 21:00:00 22.9 7 Sudoeste 15 Oeste 0 980.6 -0.3 27
2019-06-03 20:00:00 25.3 8 Sudoeste 19 Sudoeste 0 980.4 -1 24
2019-06-03 19:00:00 26.2 11 Sudoeste 23 Sudoeste 0 980.4 -1 24
2019-06-03 18:00:00 25.6 13 Sudoeste 30 Sudoeste 0 980.9 -1.2 27
2019-06-03 17:00:00 24.4 16 Sur 24 Sur 0 981.4 -1.2 30
2019-06-03 16:00:00 26.3 12 Sur 34 Sudoeste 0 981.4 -1.7 33
2019-06-03 15:00:00 24.8 15 Sur 29 Sudoeste 0 982.1 -1.3 33
2019-06-03 14:00:00 24.9 15 Sudoeste 30 Sudoeste 0 982.6 -0.8 30
2019-06-03 13:00:00 25 12 Sur 21 Sur 0 983.1 0 25
2019-06-03 12:00:00 24.3 7 Sur 17 Sur 0 983.4 0.4 27
2019-06-03 11:00:00 23.2 6 Sudoeste 15 Sudoeste 0 983.4 0.1 26
2019-06-03 10:00:00 24.2 0 Calma 6 Este 0 983.1 0 25
2019-06-03 09:00:00 21.3 0 Calma 4 Noroeste 0 983 0 33
2019-06-03 08:00:00 16.8 0 Calma 4 Nordeste 0 983.3 0 40
2019-06-03 07:00:00 13.9 2 Nordeste 6 Este 0 983.1 -0.7 46
2019-06-03 06:00:00 14.1 0 Calma 3 Nordeste 0 983 -1.1 45
2019-06-03 05:00:00 15.1 0 Calma -- -- 0 983.3 -1.5 42
2019-06-03 04:00:00 15.2 0 Calma 4 Oeste 0 983.8 -1.3 41
2019-06-03 03:00:00 15.8 0 Calma -- -- 0 984.1 -0.8 40
2019-06-03 02:00:00 16.3 0 Calma 0 Calma 0 984.8 0.2 39
2019-06-03 01:00:00 17.1 0 Calma 6 Sudoeste 0 985.1 1.4 37
2019-06-03 00:00:00 18.4 0 Calma 5 Oeste 0 984.9 1.5 37
2019-06-02 23:00:00 20 0 Calma 6 Oeste 0 984.6 1.3 34
2019-06-02 22:00:00 20.4 6 Oeste 11 Sudoeste 0 983.7 0.6 34
2019-06-02 21:00:00 21.9 6 Sur 16 Sur 0 983.4 0.1 29
2019-06-02 20:00:00 23 10 Sur 19 Sudoeste 0 983.3 0 25
2019-06-02 19:00:00 23.5 12 Sudoeste 26 Sudoeste 0 983.1 -0.3 24
2019-06-02 18:00:00 24.4 15 Sudoeste 28 Sur 0 983.3 -0.2 21
2019-06-02 17:00:00 24.8 16 Sudoeste 30 Sudoeste 0 983.3 -0.8 19
2019-06-02 16:00:00 25.6 14 Sur 30 Sur 0 983.4 -1.3 17
2019-06-02 15:00:00 25 17 Sur 31 Sudoeste 0 983.5 -1.2 16
2019-06-02 14:00:00 25.7 16 Sudoeste 29 Sur 0 984.1 -0.6 17
2019-06-02 13:00:00 26.3 12 Sudoeste 23 Sur 0 984.7 -0.1 17
2019-06-02 12:00:00 26.5 5 Este 17 Sudeste 0 984.7 -0.1 17
2019-06-02 11:00:00 24.1 5 Este 17 Este 0 984.7 -0.6 21
2019-06-02 10:00:00 22.2 0 Calma 5 Sudeste 0 984.8 -0.6 26
2019-06-02 09:00:00 19.4 0 Calma 3 Sudoeste 0 984.8 -0.5 33
2019-06-02 08:00:00 15.8 0 Calma -- -- -- 985.3 -0.3 40
2019-06-02 07:00:00 13.1 0 Calma 0 Calma 0 985.4 -0.4 47
2019-06-02 06:00:00 13.5 0 Calma 4 Noroeste 0 985.3 -0.8 45
2019-06-02 05:00:00 13.7 2 Noroeste 7 Norte 0 985.6 -0.8 43
2019-06-02 04:00:00 15 5 Noroeste 8 Noroeste 0 985.8 -0.7 42
2019-06-02 03:00:00 14.8 0 Calma 4 Nordeste 0 986.1 -0.5 42
2019-06-02 02:00:00 16 0 Calma 6 Este 0 986.4 -0.1 40
2019-06-02 01:00:00 16.7 0 Calma 3 Noroeste 0 986.5 0.7 36
2019-06-02 00:00:00 17.7 0 Calma 5 Noroeste 0 986.6 1.3 34
2019-06-01 23:00:00 19.3 0 Calma 6 Oeste 0 986.5 1.6 30
2019-06-01 22:00:00 19.9 0 Calma 12 Sudeste 0 985.8 1 27
2019-06-01 21:00:00 21.5 6 Sudeste 17 Este 0 985.3 0.6 23
2019-06-01 20:00:00 22.7 7 Este 21 Este 0 984.9 0 21
2019-06-01 19:00:00 24 10 Este 23 Este 0 984.8 -0.3 20
2019-06-01 18:00:00 25.1 8 Este 23 Este 0 984.7 -0.9 19
2019-06-01 17:00:00 26.2 9 Este 23 Este 0 984.9 -1.3 18
2019-06-01 16:00:00 26.2 5 Este 21 Este 0 985.1 -1.6 18
2019-06-01 15:00:00 25.2 6 Sudeste 26 Este 0 985.6 -1.7 18
2019-06-01 14:00:00 23.8 15 Sur 25 Sur 0 986.2 -1.2 18
2019-06-01 13:00:00 25.2 6 Este 21 Este 0 986.7 -0.4 17
2019-06-01 12:00:00 24 6 Sudeste 19 Sudeste 0 987.3 0.4 19
2019-06-01 11:00:00 23.2 9 Sudeste 21 Este 0 987.4 -0.1 21
2019-06-01 10:00:00 21.5 4 Este 16 Este 0 987.1 -0.4 25
2019-06-01 09:00:00 20.4 0 Calma 6 Este 0 986.9 -0.2 34
2019-06-01 08:00:00 15.4 3 Noroeste 11 Noroeste 0 987.5 0.4 51
2019-06-01 07:00:00 13.9 2 Nordeste 10 Nordeste 0 987.5 0.3 54
2019-06-01 06:00:00 14.9 0 Calma 10 Este 0 987.1 -0.2 48
2019-06-01 05:00:00 15.4 0 Calma 7 Este 0 987.1 -0.8 48
2019-06-01 04:00:00 16 3 Este -- -- -- 987.2 -1.1 48
2019-06-01 03:00:00 16 0 Calma 8 Norte 0 987.3 -1.2 56
2019-06-01 02:00:00 16.3 0 Calma 7 Oeste 0 987.9 -0.4 59
2019-06-01 01:00:00 16.4 0 Calma 5 Noroeste 0 988.3 0.7 72
2019-06-01 00:00:00 16.9 0 Calma 6 Noroeste 0 988.5 1.3 72
2019-05-31 23:00:00 17 4 Sudoeste 12 Sudoeste 0 988.3 1.5 71
2019-05-31 22:00:00 18.4 6 Sudoeste 11 Sur 0 987.6 0.7 61
2019-05-31 21:00:00 19.8 6 Sur 14 Sur 0 987.2 0.3 51
2019-05-31 20:00:00 21.6 7 Sur 19 Sudoeste 0 986.8 -0.6 44
2019-05-31 19:00:00 21.6 13 Sudoeste 29 Sudoeste 0 986.9 -0.8 40
2019-05-31 18:00:00 22.8 15 Sudoeste 27 Sudoeste 0 986.9 -0.6 37
2019-05-31 17:00:00 23.4 9 Sur 26 Sur 0 987.4 -0.9 36
2019-05-31 16:00:00 24.6 9 Sur 31 Sur 0 987.7 -0.9 34
2019-05-31 15:00:00 23.7 16 Sur 28 Sur 0 987.5 -1.4 32
2019-05-31 14:00:00 24.5 12 Sur 22 Sudoeste 0 988.3 -0.6 26
2019-05-31 13:00:00 24.9 5 Este 22 Este 0 988.6 -0.4 24
2019-05-31 12:00:00 23.5 8 Sudeste 45 Sudeste 0 988.9 0.2 24
2019-05-31 11:00:00 22.1 6 Sudeste 19 Este 0 988.9 -0.2 26
2019-05-31 10:00:00 20.7 6 Este 14 Este 0 989 0.3 37
2019-05-31 09:00:00 17.9 4 Este 11 Este 0 988.7 0.4 53
2019-05-31 08:00:00 15.5 0 Calma 4 Sudoeste 0 989.1 0.3 62
2019-05-31 07:00:00 12.3 0 Calma 0 Calma 0 988.7 -0.4 75
2019-05-31 06:00:00 12.6 0 Calma 5 Norte 0 988.3 -1.3 76
2019-05-31 05:00:00 13.5 0 Calma 7 Noroeste 0 988.8 -1.5 75
2019-05-31 04:00:00 13.5 0 Calma 3 Noroeste 0 989.1 -1.4 76
2019-05-31 03:00:00 14.4 0 Calma 5 Nordeste 0 989.6 -1.1 75
2019-05-31 02:00:00 14.3 0 Calma 5 Norte 0 990.3 -0.2 75
2019-05-31 01:00:00 15.7 0 Calma 8 Nordeste 0 990.5 0.7 72
2019-05-31 00:00:00 16.2 3 Nordeste 10 Este 0 990.7 1.5 71
2019-05-30 23:00:00 16.8 0 Calma 9 Este 0 990.5 1.9 65
2019-05-30 22:00:00 16.9 6 Sudoeste 22 Sudoeste 0 989.8 1.3 64
2019-05-30 21:00:00 17.7 10 Sudoeste 19 Sudoeste 0 989.2 0.8 56
2019-05-30 20:00:00 19.8 9 Sur 18 Sur 0 988.6 0 46
2019-05-30 19:00:00 21.2 8 Sur 24 Sudeste 0 988.5 -0.1 36
2019-05-30 18:00:00 23 4 Sudeste 24 Sur 0 988.4 -0.5 32
2019-05-30 17:00:00 22.5 6 Sudeste 27 Sudoeste 0 988.6 -0.6 27
2019-05-30 16:00:00 23.7 4 Sudeste 33 Oeste 0 988.6 -1.1 24
2019-05-30 15:00:00 21.9 13 Sudoeste 28 Sur 0 988.9 -0.9 28
2019-05-30 14:00:00 23.4 7 Sur 30 Oeste 0 989.2 -0.6 28
2019-05-30 13:00:00 22.8 6 Este 22 Este 0 989.7 -0.1 31
2019-05-30 12:00:00 21.5 6 Sudeste 21 Este 0 989.8 0.3 34
2019-05-30 11:00:00 20.4 7 Este 22 Sudeste 0 989.8 0.2 37
2019-05-30 10:00:00 19 5 Sudeste 13 Este 0 989.8 0.5 42
2019-05-30 09:00:00 18.3 2 Este 7 Nordeste 0 989.5 0.7 44
2019-05-30 08:00:00 14.9 0 Calma 5 Oeste 0 989.6 0.7 50
2019-05-30 07:00:00 12 0 Calma 5 Noroeste 0 989.3 0.3 56
2019-05-30 06:00:00 12.7 0 Calma 8 Noroeste 0 988.8 -0.3 56
2019-05-30 05:00:00 12.9 0 Calma 8 Norte 0 988.9 -0.3 54
2019-05-30 04:00:00 14.7 4 Nordeste 14 Este 0 989 -0.2 53
2019-05-30 03:00:00 14.8 0 Calma 8 Este 0 989.1 0.1 50
2019-05-30 02:00:00 15.1 0 Calma 7 Este 0 989.2 1 50
2019-05-30 01:00:00 15.2 0 Calma 5 Noroeste 0 989.2 2 50
2019-05-30 00:00:00 16 2 Noroeste 4 Oeste 0 989 2.5 46
2019-05-29 23:00:00 16.8 3 Oeste 7 Oeste 0 988.2 2.2 42
2019-05-29 22:00:00 17.7 4 Oeste 13 Este 0 987.2 1.9 40
2019-05-29 21:00:00 18.8 4 Este 18 Este 0 986.5 1.6 37
2019-05-29 20:00:00 19.6 8 Este 23 Este 0 986 0.9 37
2019-05-29 19:00:00 20.5 10 Este 22 Sudeste 0 985.3 0.8 37
2019-05-29 18:00:00 21.8 7 Sudeste 22 Sur 0 984.9 0.3 37
2019-05-29 17:00:00 20.9 14 Sur 33 Oeste 0 985.1 0.5 41
2019-05-29 16:00:00 21.3 17 Sudoeste 33 Sudoeste 0 984.5 -0.3 39
2019-05-29 15:00:00 21.3 16 Sur 28 Sudoeste 0 984.6 -0.6 36
2019-05-29 14:00:00 21.9 8 Sur 27 Sudoeste 0 984.6 -0.3 36
2019-05-29 13:00:00 21.7 14 Sur 24 Sur 0 984.8 -0.4 42
2019-05-29 12:00:00 21.1 10 Sur 20 Sur 0 985.2 0.4 39
2019-05-29 11:00:00 21.6 4 Sudeste 18 Sudeste 0 984.9 0.1 34
2019-05-29 10:00:00 20.1 6 Sudeste 19 Este 0 985.2 0.8 37
2019-05-29 09:00:00 19.7 2 Sudeste 10 Nordeste 0 984.8 1 47
2019-05-29 08:00:00 17.7 0 Calma 5 Este 0 984.8 1.2 62
2019-05-29 07:00:00 15.3 0 Calma 5 Norte 0 984.4 1.1 75
2019-05-29 06:00:00 16 0 Calma 9 Este 0 983.8 0.8 72
2019-05-29 05:00:00 16.6 5 Este 13 Sudeste 0 983.6 1 75
2019-05-29 04:00:00 16.9 5 Este 14 Este 0 983.3 0.9 75
2019-05-29 03:00:00 17.7 6 Este 23 Este 0 983 1.1 72
2019-05-29 02:00:00 18.5 7 Este 21 Este 0 982.6 1.5 72
2019-05-29 01:00:00 18.6 0 Calma 10 Este 0 982.4 2.5 76
2019-05-29 00:00:00 18 0 Calma 11 Sudoeste 0 981.9 2.9 76
2019-05-28 23:00:00 18.7 3 Este 14 Sudeste 0 981.1 2.8 66
2019-05-28 22:00:00 19.5 0 Calma 12 Sudoeste 0 979.9 2.1 65
2019-05-28 21:00:00 20.5 6 Sudoeste 15 Sur 0 979 1.4 62
2019-05-28 20:00:00 21.9 12 Sur 21 Sur 0 978.3 0.7 57
2019-05-28 19:00:00 23.3 11 Sur 19 Sudoeste 0 977.8 0 50
2019-05-28 18:00:00 23.9 12 Sudoeste 27 Sudoeste 0 977.6 -0.2 49
2019-05-28 17:00:00 23.5 15 Sudoeste 28 Sudoeste 0 977.6 0.1 52
2019-05-28 16:00:00 23.1 14 Sur 32 Sur 0 977.8 -0.1 55
2019-05-28 15:00:00 23.4 18 Sudoeste 32 Sur 0 977.8 -0.5 54
2019-05-28 14:00:00 25.2 14 Sur 29 Sudoeste 0 977.5 -0.2 42
2019-05-28 13:00:00 24.3 13 Sur 21 Sur 0 977.9 0 42
2019-05-28 12:00:00 24.5 8 Sur 19 Sudeste 0 978.3 0.5 38
2019-05-28 11:00:00 23.9 3 Este 12 Sur 0 977.7 -0.2 42
2019-05-28 10:00:00 21.4 0 Calma 8 Sudoeste 0 977.9 0.3 49
2019-05-28 09:00:00 20 0 Calma 6 Sur 0 977.8 0.7 55
2019-05-28 08:00:00 18 0 Calma 15 Sudeste 0 977.9 1.3 63
2019-05-28 07:00:00 16.5 8 Este 21 Este 0 977.6 1 72
2019-05-28 06:00:00 17 6 Este 19 Este 0 977.1 0.9 66
2019-05-28 05:00:00 16.5 3 Este 12 Este 0 976.6 0.3 62
2019-05-28 04:00:00 16.8 0 Calma 8 Este 0 976.6 -0.2 56
2019-05-28 03:00:00 16.8 0 Calma 7 Este 0 976.2 -0.6 56
2019-05-28 02:00:00 17.9 0 Calma 4 Noroeste 0 976.3 -0.4 53
2019-05-28 01:00:00 18.7 0 Calma 4 Sudeste 0 976.8 0.5 51
2019-05-28 00:00:00 19.7 0 Calma 7 Este 0 976.8 1.2 48
2019-05-27 23:00:00 20.4 0 Calma 9 Sudeste 0 976.7 1.2 43
2019-05-27 22:00:00 21.2 5 Este 15 Nordeste 0 976.3 1 39
2019-05-27 21:00:00 23 3 Este 20 Este 0 975.6 0.1 34
2019-05-27 20:00:00 24.2 5 Este 18 Este 0 975.5 -0.1 30
2019-05-27 19:00:00 25.9 10 Sudoeste 22 Sudoeste 0 975.3 -0.8 27
2019-05-27 18:00:00 25.9 10 Sudoeste 24 Sudoeste 0 975.5 -1.1 28
2019-05-27 17:00:00 26.1 13 Sudoeste 24 Sudoeste 0 975.6 -1.5 26
2019-05-27 16:00:00 26.6 9 Sur 27 Sudoeste 0 976.1 -1.6 27
2019-05-27 15:00:00 26.1 16 Sudoeste 29 Sudoeste 0 976.6 -1 31
2019-05-27 14:00:00 24.7 14 Sudoeste 28 Oeste 0 977.1 -1.3 34
2019-05-27 13:00:00 22.9 15 Sur 27 Sur 0 977.7 -0.7 39
2019-05-27 12:00:00 25.1 2 Sur 15 Sudoeste 0 977.6 -1.2 30
2019-05-27 11:00:00 23 0 Calma 7 Este 0 978.4 -1 34
2019-05-27 10:00:00 22.1 0 Calma 6 Este 0 978.4 -1.1 41
2019-05-27 09:00:00 18.8 0 Calma 5 Sudeste 0 978.8 -0.4 56
2019-05-27 08:00:00 16.2 0 Calma 4 Este 0 979.4 0.1 60
2019-05-27 07:00:00 13.5 2 Noroeste 6 Sudeste 0 979.5 0 75
2019-05-27 06:00:00 14.4 2 Este 12 Nordeste 0 979.2 -0.6 75
2019-05-27 05:00:00 14.7 4 Este 14 Este 0 979.3 -1 80
2019-05-27 04:00:00 14.7 0 Calma 7 Nordeste 0 979.5 -1 74
2019-05-27 03:00:00 15.8 0 Calma 7 Este 0 979.8 -0.9 66
2019-05-27 02:00:00 16.3 0 Calma 4 Este 0 980.3 -0.3 54
2019-05-27 01:00:00 17 0 Calma 6 Nordeste 0 980.5 0.5 53
2019-05-27 00:00:00 17.6 0 Calma 3 Este 0 980.7 0.8 48
2019-05-26 23:00:00 18.9 0 Calma 9 Nordeste 0 980.6 0.9 46
2019-05-26 22:00:00 19.7 3 Este 11 Nordeste 0 980 0.3 42
2019-05-26 21:00:00 21.1 3 Sudoeste 10 Sur 0 979.9 0.3 37
2019-05-26 20:00:00 23.1 3 Sudoeste 23 Sudeste 0 979.7 -0.1 32
2019-05-26 19:00:00 22.1 12 Sur 32 Sur 0 979.7 -0.5 31
2019-05-26 18:00:00 22.5 15 Sur 35 Sur 0 979.6 -1.1 30
2019-05-26 17:00:00 22.3 16 Sudeste 35 Sur 0 979.8 -1.4 29
2019-05-26 16:00:00 22.2 18 Sur 35 Sur 0 980.2 -1.3 30
2019-05-26 15:00:00 22.5 17 Sudeste 33 Sudeste 0 980.7 -1.3 31
2019-05-26 14:00:00 22.4 16 Sur 33 Sudoeste 0 981.2 -0.7 31
2019-05-26 13:00:00 22.4 14 Sur 26 Sur 0 981.5 -0.9 28
2019-05-26 12:00:00 22.2 10 Sur 21 Sur 0 982 -0.3 28
2019-05-26 11:00:00 21.2 6 Sudoeste 20 Sudoeste 0 981.9 -1 33
2019-05-26 10:00:00 21.1 0 Calma 3 Este 0 982.4 -0.2 37
2019-05-26 09:00:00 19.4 0 Calma 5 Sudoeste 0 982.3 -0.3 48
2019-05-26 08:00:00 15.1 0 Calma 0 Calma 0 982.9 0 66
2019-05-26 07:00:00 12.3 0 Calma -- -- 0 982.6 -0.6 80
2019-05-26 06:00:00 12.7 0 Calma 4 Este 0 982.6 -1.1 80
2019-05-26 05:00:00 12.7 0 Calma 7 Noroeste 0 982.9 -1.1 79
2019-05-26 04:00:00 13.3 0 Calma -- -- 0 983.2 -0.9 78
2019-05-26 03:00:00 13.5 0 Calma -- -- 0 983.7 -0.3 78
2019-05-26 02:00:00 14.1 0 Calma 5 Norte 0 984 0.2 78
2019-05-26 01:00:00 14.8 0 Calma 5 Oeste 0 984.1 1.1 79
2019-05-26 00:00:00 15.3 0 Calma 6 Oeste 0 984 1.5 75
2019-05-25 23:00:00 16.1 0 Calma 5 Noroeste 0 983.8 1.7 74
2019-05-25 22:00:00 16.6 0 Calma 13 Sur 0 983 1.3 72
2019-05-25 21:00:00 17 8 Sur 18 Sur 0 982.5 1.3 72
2019-05-25 20:00:00 18 11 Sudoeste 26 Sudoeste 0 982.1 1.6 68
2019-05-25 19:00:00 19.1 9 Sudoeste 26 Sudoeste 0 981.7 1 59
2019-05-25 18:00:00 20.5 13 Sudoeste 28 Sudoeste 0 981.2 0 48
2019-05-25 17:00:00 21 12 Sudoeste 27 Sudoeste 0 980.5 -0.7 43
2019-05-25 16:00:00 20.6 13 Sudoeste 24 Sur 0 980.7 -0.1 43
2019-05-25 15:00:00 19.7 12 Sur 24 Sur 0 981.2 0.4 43
2019-05-25 14:00:00 19.7 16 Sur 30 Sudoeste 0 981.2 0.7 40
2019-05-25 13:00:00 20.5 14 Sur 26 Sur 0 980.8 0.4 35
2019-05-25 12:00:00 21.1 6 Sudeste 16 Sudeste 0 980.8 0.6 31
2019-05-25 11:00:00 20.9 6 Sudoeste 17 Sudoeste 0 980.5 0.1 31
2019-05-25 10:00:00 20.8 3 Sur 8 Sudeste 0 980.4 0.4 30
2019-05-25 09:00:00 16.8 0 Calma 5 Sudoeste 0 980.2 0.3 35
2019-05-25 08:00:00 12.9 0 Calma 13 Noroeste 0 980.4 0.4 45
2019-05-25 07:00:00 12.3 0 Calma 4 Sudoeste 0 980 -0.2 47
2019-05-25 06:00:00 12.5 0 Calma 5 Oeste 0 979.9 -0.6 46
2019-05-25 05:00:00 13 0 Calma 7 Sudoeste 0 980 -1 46
2019-05-25 04:00:00 13.9 3 Oeste 7 Oeste 0 980.2 -0.9 43
2019-05-25 03:00:00 14.5 3 Oeste 6 Oeste 0 980.5 -0.4 42
2019-05-25 02:00:00 15.9 0 Calma 7 Oeste 0 981 0.3 40
2019-05-25 01:00:00 16.7 0 Calma 16 Nordeste 0 981.1 1.2 40
2019-05-25 00:00:00 16.6 4 Nordeste 18 Este 0 980.9 1.8 40
2019-05-24 23:00:00 16.5 4 Este 21 Nordeste 0 980.7 2.1 40
2019-05-24 22:00:00 16.7 8 Nordeste 33 Nordeste 0 979.9 2.5 43
2019-05-24 21:00:00 17.7 13 Nordeste 37 Nordeste 0 979.1 2.2 43
2019-05-24 20:00:00 19.6 9 Este 22 Sudeste 0 978.6 1.8 59
2019-05-24 19:00:00 20 10 Sudeste 22 Sudeste 0 977.4 0.7 59
2019-05-24 18:00:00 20.6 6 Sur 28 Sudoeste 0 976.9 0.4 61
2019-05-24 17:00:00 21.6 15 Sur 24 Sudoeste 0 976.8 0.5 56
2019-05-24 16:00:00 22.2 14 Sudoeste 30 Este 0 976.7 0 41
2019-05-24 15:00:00 23.1 13 Este 27 Sudeste 0 976.5 -0.3 36
2019-05-24 14:00:00 24.7 5 Sur 19 Sudoeste 0 976.3 -0.3 34
2019-05-24 13:00:00 23.6 9 Sur 15 Sur 0 976.7 0.7 36
2019-05-24 12:00:00 22.9 8 Sudoeste 17 Oeste 0 976.8 -0.5 28
2019-05-24 11:00:00 24.7 0 Calma 5 Sudeste 0 976.6 -1 26
2019-05-24 10:00:00 24.6 0 Calma 3 Este 0 976 -2.1 28
2019-05-24 09:00:00 19.9 0 Calma 4 Este 0 977.3 -1 35
2019-05-24 08:00:00 17.1 0 Calma 5 Este 0 977.6 -0.8 40
2019-05-24 07:00:00 15 0 Calma 2 Noroeste 0 978.1 -0.9 42
2019-05-24 06:00:00 15.6 0 Calma 3 Este 0 978.3 -1.2 42
2019-05-24 05:00:00 16.3 0 Calma 3 Este 0 978.4 -1.8 41
2019-05-24 04:00:00 16.8 0 Calma 3 Sudoeste 0 979 -1.8 40
2019-05-24 03:00:00 17.1 0 Calma 3 Noroeste 0 979.5 -1.3 40
2019-05-24 02:00:00 17.8 0 Calma 7 Noroeste 0 980.2 -0.6 38
2019-05-24 01:00:00 18.3 2 Noroeste 5 Noroeste 0 980.8 0.6 38
2019-05-24 00:00:00 18.6 0 Calma 5 Oeste 0 980.8 0.7 35
2019-05-23 23:00:00 20 0 Calma 6 Sudoeste 0 980.8 1 31
2019-05-23 22:00:00 21.4 0 Calma 5 Sudoeste 0 980.2 0.2 25
2019-05-23 21:00:00 22.8 4 Sudoeste 13 Sudoeste 0 980.1 -0.2 20
2019-05-23 20:00:00 24.6 7 Sudoeste 15 Sur 0 979.8 -0.9 18
2019-05-23 19:00:00 26.1 6 Sur 20 Sudoeste 0 980 -1 18
2019-05-23 18:00:00 26 10 Sur 28 Sudoeste 0 980.3 -1 19
2019-05-23 17:00:00 25.8 14 Sudoeste 26 Oeste 0 980.7 -1.1 18
2019-05-23 16:00:00 25 15 Sudoeste 29 Sudoeste 0 981 -1.1 19
2019-05-23 15:00:00 26.6 13 Sudoeste 30 Sudoeste 0 981.3 -1.1 18
2019-05-23 14:00:00 26.1 12 Sur 25 Sudoeste 0 981.8 -1.1 18
2019-05-23 13:00:00 25.6 14 Sudoeste 24 Sudoeste 0 982.1 -0.6 18
2019-05-23 12:00:00 25.5 11 Sudoeste 21 Sudoeste 0 982.4 -0.5 19
2019-05-23 11:00:00 25.7 0 Calma 4 Sur 0 982.9 -0.7 20
2019-05-23 10:00:00 24.4 0 Calma 0 Calma 0 982.7 -0.9 22
2019-05-23 09:00:00 19.2 0 Calma 0 Calma 0 982.9 -0.5 38
2019-05-23 08:00:00 15.9 0 Calma -- -- 0 983.6 0 48
2019-05-23 07:00:00 13 0 Calma 4 Este 0 983.6 -0.3 56
2019-05-23 06:00:00 13.3 0 Calma 4 Noroeste 0 983.4 -0.7 49
2019-05-23 05:00:00 13.3 0 Calma 2 Noroeste 0 983.6 -0.6 60
2019-05-23 04:00:00 14.3 0 Calma 0 Calma 0 983.9 -0.3 62
2019-05-23 03:00:00 14.9 0 Calma 0 Calma 0 984.1 0.1 62
2019-05-23 02:00:00 15.4 0 Calma 4 Sudeste 0 984.2 0.4 62
2019-05-23 01:00:00 16.4 0 Calma 0 Calma 0 984.2 0.9 62
2019-05-23 00:00:00 17 0 Calma 3 Oeste 0 984 1.2 62
2019-05-22 23:00:00 17.9 0 Calma 7 Sudoeste 0 983.8 1.3 58
2019-05-22 22:00:00 18.1 5 Sudoeste 13 Sudoeste 0 983.3 1.2 59
2019-05-22 21:00:00 19.6 8 Sudoeste 17 Sudoeste 0 982.8 0.4 44
2019-05-22 20:00:00 21.6 9 Sudoeste 20 Sur 0 982.5 0.3 35
2019-05-22 19:00:00 22.4 12 Sudoeste 23 Sudoeste 0 982.1 -0.3 32
2019-05-22 18:00:00 22.9 14 Sudoeste 25 Sudoeste 0 982.4 -0.1 25
2019-05-22 17:00:00 22.9 14 Sudoeste 26 Sudoeste 0 982.2 -0.3 23
2019-05-22 16:00:00 22.7 13 Sur 28 Sudoeste 0 982.4 -0.5 21
2019-05-22 15:00:00 24.3 14 Sur 29 Sudoeste 0 982.5 -0.8 18
2019-05-22 14:00:00 24.4 14 Sur 33 Sudoeste 0 982.5 -0.4 18
2019-05-22 13:00:00 23.3 12 Sur 26 Sudoeste 0 982.9 0 21
2019-05-22 12:00:00 22.3 12 Sur 19 Sur 0 983.3 0.6 21
2019-05-22 11:00:00 23 0 Calma 7 Oeste 0 982.9 -0.2 33
2019-05-22 10:00:00 20.1 0 Calma 3 Sur 0 982.9 0.2 47
2019-05-22 09:00:00 17.3 0 Calma 0 Calma 0 982.7 0.3 63
2019-05-22 08:00:00 13.5 0 Calma -- -- 0 983.1 0.5 79
2019-05-22 07:00:00 12.6 0 Calma 0 Calma 0 982.7 0.1 82
2019-05-22 06:00:00 12.6 0 Calma 0 Calma 0 982.4 -0.4 82
2019-05-22 05:00:00 13.4 0 Calma -- -- 0 982.6 -0.3 82
2019-05-22 04:00:00 13.7 0 Calma 4 Noroeste 0 982.6 -0.2 82
2019-05-22 03:00:00 14.4 0 Calma 0 Calma 0 982.8 0.1 81
2019-05-22 02:00:00 14.8 0 Calma 0 Calma 0 982.9 0.5 81
2019-05-22 01:00:00 15.4 0 Calma 5 Sudeste 0 982.8 1.1 79
2019-05-22 00:00:00 15.7 0 Calma 0 Calma 0 982.7 1.6 79